Time;durP1;ratioP1;P1;durP2;ratioP2;P2;SDS_P1;SDS_P2;PMS_P1;PMS_P2;Temp;Humidity;BMP_temperature;BMP_pressure;BME280_temperature;BME280_humidity;BME280_pressure;Samples;Min_cycle;Max_cycle;Signal;HPM_P1;HPM_P2
2023/03/19 00:00:55;;;;;;;5.07;2.20;;;;;;;10.30;98.09;101011.38;4925793;29;20044;-95
2023/03/19 00:03:23;;;;;;;4.55;2.33;;;;;;;10.27;98.33;101014.81;4894289;29;20023;-94
2023/03/19 00:05:52;;;;;;;3.78;2.00;;;;;;;10.26;98.65;101007.81;4902530;29;20478;-96
2023/03/19 00:08:27;;;;;;;3.92;2.00;;;;;;;10.26;98.66;101021.72;4904524;29;20486;-95
2023/03/19 00:10:56;;;;;;;3.97;1.75;;;;;;;10.22;98.91;101012.03;4921981;29;20063;-95
2023/03/19 00:13:21;;;;;;;3.53;1.83;;;;;;;10.22;98.91;101012.03;4907822;29;20091;-95
2023/03/19 00:15:49;;;;;;;4.95;2.08;;;;;;;10.23;98.94;101012.94;4907799;29;20020;-95
2023/03/19 00:18:25;;;;;;;3.95;1.80;;;;;;;10.20;99.18;101011.13;4907179;29;20056;-95
2023/03/19 00:21:02;;;;;;;3.33;1.70;;;;;;;10.17;98.98;101016.25;4906541;29;20546;-94
2023/03/19 00:23:36;;;;;;;3.35;1.90;;;;;;;10.16;99.56;101024.91;4905756;29;20024;-95
2023/03/19 00:26:02;;;;;;;4.82;2.28;;;;;;;10.18;99.36;101020.63;4903639;29;20070;-95
2023/03/19 00:28:36;;;;;;;3.83;2.00;;;;;;;10.19;99.42;101026.72;4903989;29;20035;-95
2023/03/19 00:31:18;;;;;;;4.18;2.10;;;;;;;10.18;99.62;101031.06;4905276;29;20050;-95
2023/03/19 00:33:44;;;;;;;3.67;2.15;;;;;;;10.20;99.41;101031.09;4913200;29;20036;-95
2023/03/19 00:36:12;;;;;;;5.05;2.22;;;;;;;10.20;99.41;101031.09;4903209;29;20040;-95
2023/03/19 00:38:41;;;;;;;3.78;2.15;;;;;;;10.22;99.48;101029.41;4907229;29;20040;-95
2023/03/19 00:41:07;;;;;;;4.82;2.35;;;;;;;10.22;99.32;101027.66;4907022;29;20036;-94
2023/03/19 00:43:35;;;;;;;4.38;2.40;;;;;;;10.20;99.73;101031.97;4906012;29;20031;-95
2023/03/19 00:46:01;;;;;;;4.57;2.60;;;;;;;10.21;99.74;101033.75;4908631;29;20028;-95
2023/03/19 00:48:54;;;;;;;4.47;2.63;;;;;;;10.21;99.70;101033.75;4921223;29;20024;-95
2023/03/19 00:51:27;;;;;;;4.55;2.33;;;;;;;10.21;99.81;101031.13;4902749;29;20032;-95
2023/03/19 00:53:52;;;;;;;6.57;2.60;;;;;;;10.19;99.75;101030.19;4909479;29;20035;-95
2023/03/19 00:56:18;;;;;;;5.25;2.90;;;;;;;10.18;99.92;101030.16;4915354;29;20076;-95
2023/03/19 00:58:48;;;;;;;5.07;3.05;;;;;;;10.15;100.00;101024.84;4902549;29;20038;-95
2023/03/19 01:01:21;;;;;;;5.07;2.67;;;;;;;10.15;100.00;101036.16;4901483;29;20024;-94
2023/03/19 01:03:50;;;;;;;5.65;2.67;;;;;;;10.17;100.00;101031.00;4905729;29;20036;-94
2023/03/19 01:06:15;;;;;;;7.05;2.90;;;;;;;10.16;99.92;101032.72;4922252;29;20032;-95
2023/03/19 01:08:48;;;;;;;4.95;2.70;;;;;;;10.19;99.78;101030.19;4904824;29;20032;-94
2023/03/19 01:11:17;;;;;;;6.63;2.92;;;;;;;10.20;99.57;101038.91;4904950;29;20043;-94
2023/03/19 01:13:43;;;;;;;5.88;2.95;;;;;;;10.20;99.60;101031.97;4907307;29;20060;-94
2023/03/19 01:16:10;;;;;;;5.25;2.97;;;;;;;10.19;99.51;101030.19;4908141;29;20055;-95
2023/03/19 01:18:39;;;;;;;4.90;3.20;;;;;;;10.14;99.60;101030.91;4911356;29;20079;-94
2023/03/19 01:21:06;;;;;;;7.25;3.33;;;;;;;10.13;100.00;101034.38;4906018;29;20066;-93
2023/03/19 01:23:34;;;;;;;6.75;3.10;;;;;;;10.10;100.00;101025.59;4906238;29;20039;-94
2023/03/19 01:26:00;;;;;;;6.15;3.13;;;;;;;10.09;100.00;101030.78;4907017;29;20032;-93
2023/03/19 01:28:26;;;;;;;4.70;3.03;;;;;;;10.09;100.00;101034.28;4907237;29;20410;-94
2023/03/19 01:31:07;;;;;;;5.80;3.30;;;;;;;10.08;100.00;101029.03;4907875;29;20054;-95
2023/03/19 01:33:33;;;;;;;5.45;3.17;;;;;;;10.06;100.00;101026.34;4907951;29;20027;-94
2023/03/19 01:36:04;;;;;;;5.18;3.45;;;;;;;10.06;100.00;101028.09;4903524;29;20409;-94
2023/03/19 01:38:33;;;;;;;5.80;3.05;;;;;;;10.04;100.00;101027.19;4906212;29;20462;-95
2023/03/19 01:40:59;;;;;;;5.43;3.17;;;;;;;10.05;100.00;101024.59;4908141;29;20070;-94
2023/03/19 01:43:30;;;;;;;6.40;3.22;;;;;;;10.09;100.00;101025.56;4922998;29;20060;-95
2023/03/19 01:46:12;;;;;;;5.80;2.85;;;;;;;10.11;100.00;101026.50;4922547;29;20032;-93
2023/03/19 01:48:42;;;;;;;5.05;3.20;;;;;;;10.12;100.00;101027.38;4910372;29;20142;-95
2023/03/19 01:51:10;;;;;;;5.82;3.38;;;;;;;10.11;100.00;101026.50;4903979;29;20075;-94
2023/03/19 01:53:38;;;;;;;5.80;3.47;;;;;;;10.12;100.00;101028.25;4904089;29;20044;-94
2023/03/19 01:56:15;;;;;;;6.35;3.92;;;;;;;10.16;100.00;101031.84;4910381;29;20031;-94
2023/03/19 01:58:43;;;;;;;5.85;3.67;;;;;;;10.15;100.00;101030.94;4905039;29;20039;-95
2023/03/19 02:01:09;;;;;;;7.50;3.83;;;;;;;10.17;100.00;101031.00;4906001;29;20024;-95
2023/03/19 02:03:41;;;;;;;7.13;3.90;;;;;;;10.19;100.00;101031.91;4908612;29;20032;-95
2023/03/19 02:06:11;;;;;;;7.57;4.07;;;;;;;10.19;100.00;101024.09;4910150;29;20514;-94
2023/03/19 02:11:26;;;;;;;6.85;4.15;;;;;;;10.22;100.00;101025.06;4919378;29;20032;-94
2023/03/19 02:13:55;;;;;;;5.97;4.00;;;;;;;10.23;100.00;101033.78;4906067;29;20865;-94
2023/03/19 02:16:29;;;;;;;8.02;4.22;;;;;;;10.23;100.00;101034.66;4903899;29;20016;-93
2023/03/19 02:18:55;;;;;;;6.95;4.07;;;;;;;10.24;100.00;101028.59;4905769;29;20034;-94
2023/03/19 02:21:24;;;;;;;7.45;4.30;;;;;;;10.24;100.00;101028.59;4906238;29;20466;-93
2023/03/19 02:24:01;;;;;;;7.95;4.47;;;;;;;10.23;100.00;101032.03;4908476;29;20057;-94
2023/03/19 02:26:30;;;;;;;7.45;4.57;;;;;;;10.20;100.00;101031.09;4905596;29;20032;-94
2023/03/19 02:29:00;;;;;;;7.43;4.47;;;;;;;10.16;100.00;101030.09;4904379;29;20024;-93
2023/03/19 02:31:28;;;;;;;7.80;4.82;;;;;;;10.15;100.00;101032.66;4919842;29;20028;-94
2023/03/19 02:34:26;;;;;;;9.18;5.00;;;;;;;10.17;100.00;101039.69;4906303;29;20019;-93
2023/03/19 02:36:59;;;;;;;9.52;5.13;;;;;;;10.15;100.00;101033.53;4866675;29;20051;-94
2023/03/19 02:39:55;;;;;;;8.20;5.07;;;;;;;10.14;100.00;101029.19;4905199;29;20579;-94
2023/03/19 02:42:25;;;;;;;8.02;5.13;;;;;;;10.16;100.00;101030.09;4902001;29;20032;-93
2023/03/19 02:44:51;;;;;;;8.43;5.40;;;;;;;10.16;100.00;101031.84;4921436;29;20038;-94
2023/03/19 02:47:22;;;;;;;8.77;4.97;;;;;;;10.13;100.00;101029.16;4918229;29;20406;-94
2023/03/19 02:49:47;;;;;;;10.25;5.88;;;;;;;10.13;100.00;101035.22;4907867;29;20034;-94
2023/03/19 02:52:12;;;;;;;8.90;5.22;;;;;;;10.13;100.00;101040.44;4901176;29;20028;-94
2023/03/19 02:54:41;;;;;;;8.45;5.45;;;;;;;10.10;100.00;101046.44;4902588;29;20116;-95
2023/03/19 02:57:06;;;;;;;11.23;5.28;;;;;;;10.12;100.00;101041.28;4903325;29;20020;-95
2023/03/19 02:59:32;;;;;;;8.40;5.75;;;;;;;10.11;100.00;101042.13;4924273;29;20044;-94
2023/03/19 03:02:00;;;;;;;8.98;5.55;;;;;;;10.11;100.00;101042.13;4902643;29;20038;-94
2023/03/19 03:04:28;;;;;;;12.18;5.90;;;;;;;10.10;100.00;101045.56;4904451;29;20040;-94
2023/03/19 03:06:56;;;;;;;9.00;5.88;;;;;;;10.10;100.00;101045.56;4903284;29;20032;-94
2023/03/19 03:09:22;;;;;;;12.80;6.38;;;;;;;10.10;100.00;101046.44;4902098;29;20035;-94
2023/03/19 03:11:47;;;;;;;9.63;6.15;;;;;;;10.12;100.00;101054.28;4906296;29;20458;-93
2023/03/19 03:14:20;;;;;;;10.50;6.10;;;;;;;10.14;100.00;101047.41;4903357;29;20028;-94
2023/03/19 03:16:46;;;;;;;10.25;5.95;;;;;;;10.15;100.00;101046.56;4905790;29;20090;-93
2023/03/19 03:19:12;;;;;;;11.38;6.90;;;;;;;10.15;100.00;101043.09;4905039;29;20443;-93
2023/03/19 03:21:45;;;;;;;9.25;6.03;;;;;;;10.15;100.00;101038.75;4900316;29;20069;-94
2023/03/19 03:24:14;;;;;;;10.38;6.78;;;;;;;10.13;100.00;101043.03;4904100;29;20758;-94
2023/03/19 03:26:45;;;;;;;9.48;6.28;;;;;;;10.12;100.00;101048.22;4899592;29;20032;-93
2023/03/19 03:29:11;;;;;;;10.27;6.38;;;;;;;10.13;100.00;101049.97;4920267;29;20082;-94
2023/03/19 03:31:36;;;;;;;11.13;6.18;;;;;;;10.11;100.00;101044.72;4900612;29;20036;-94
2023/03/19 03:34:02;;;;;;;11.85;6.60;;;;;;;10.11;100.00;101047.34;4907668;29;20554;-95
2023/03/19 03:36:31;;;;;;;12.07;6.45;;;;;;;10.12;100.00;101045.59;4922850;29;20020;-94
2023/03/19 03:39:04;;;;;;;11.98;6.93;;;;;;;10.10;100.00;101043.84;4905955;29;20024;-94
2023/03/19 03:41:32;;;;;;;10.52;6.57;;;;;;;10.08;100.00;101040.31;4902582;29;20107;-93
2023/03/19 03:44:02;;;;;;;10.63;6.97;;;;;;;10.10;100.00;101048.16;4903508;29;20031;-94
2023/03/19 03:46:31;;;;;;;12.57;6.70;;;;;;;10.08;100.00;101047.25;4902279;29;20056;-93
2023/03/19 03:48:59;;;;;;;11.10;7.17;;;;;;;10.05;100.00;101052.34;4902947;29;20125;-94
2023/03/19 03:51:27;;;;;;;11.02;7.10;;;;;;;10.01;100.00;101042.72;4902672;29;20040;-93
2023/03/19 03:53:52;;;;;;;12.23;6.72;;;;;;;10.00;100.00;101057.41;4919212;29;20082;-93
2023/03/19 03:56:21;;;;;;;12.55;7.65;;;;;;;9.98;100.00;101060.81;4924415;29;20901;-93
2023/03/19 03:58:49;;;;;;;13.95;7.63;;;;;;;9.92;100.00;101061.50;4904083;29;20036;-93
2023/03/19 04:01:19;;;;;;;12.50;7.25;;;;;;;9.88;100.00;101063.16;4902686;29;20027;-93
2023/03/19 04:03:44;;;;;;;13.13;7.63;;;;;;;9.80;100.00;101066.38;4906158;29;20036;-94
2023/03/19 04:06:39;;;;;;;14.38;7.47;;;;;;;9.74;100.00;101070.53;4905915;29;20107;-93
2023/03/19 04:09:10;;;;;;;11.93;7.10;;;;;;;9.67;100.00;101072.91;4902837;29;20034;-94
2023/03/19 04:11:46;;;;;;;12.52;7.53;;;;;;;9.61;100.00;101059.72;4901027;29;20036;-93
2023/03/19 04:14:11;;;;;;;16.45;7.72;;;;;;;9.58;100.00;101061.38;4897752;29;20032;-94
2023/03/19 04:16:40;;;;;;;14.30;7.45;;;;;;;9.50;100.00;101051.56;4906318;29;20115;-93
2023/03/19 04:19:06;;;;;;;13.55;7.50;;;;;;;9.45;100.00;101056.63;4903495;29;20038;-94
2023/03/19 04:21:37;;;;;;;12.57;7.10;;;;;;;9.38;100.00;101059.88;4905658;29;20048;-94
2023/03/19 04:24:03;;;;;;;10.90;6.88;;;;;;;9.34;100.00;101055.41;4912029;29;20028;-94
2023/03/19 04:26:28;;;;;;;13.38;7.18;;;;;;;9.30;100.00;101063.94;4899087;29;20071;-94
2023/03/19 04:28:56;;;;;;;12.65;7.63;;;;;;;9.23;100.00;101063.75;4900668;29;20498;-93
2023/03/19 04:31:22;;;;;;;13.55;7.60;;;;;;;9.19;100.00;101074.88;4904542;29;20028;-93
2023/03/19 04:33:52;;;;;;;15.88;7.68;;;;;;;9.17;100.00;101073.94;4905846;29;20031;-94
2023/03/19 04:36:20;;;;;;;12.30;7.10;;;;;;;9.16;100.00;101072.16;4905305;29;20016;-94
2023/03/19 04:38:45;;;;;;;12.70;7.32;;;;;;;9.14;100.00;101066.06;4906385;29;20048;-93
2023/03/19 04:41:12;;;;;;;11.63;7.53;;;;;;;9.09;100.00;101062.41;4904955;29;20048;-94
2023/03/19 04:43:40;;;;;;;12.10;7.50;;;;;;;9.06;100.00;101059.72;4914688;29;20528;-94
2023/03/19 04:46:06;;;;;;;14.18;7.78;;;;;;;9.01;100.00;101059.56;4905597;29;20082;-94
2023/03/19 04:48:34;;;;;;;13.60;7.75;;;;;;;9.00;100.00;101067.31;4909004;29;20027;-93
2023/03/19 04:51:01;;;;;;;13.02;7.65;;;;;;;8.97;100.00;101065.47;4903504;29;20034;-94
2023/03/19 04:53:27;;;;;;;12.10;7.57;;;;;;;8.95;100.00;101069.75;4905488;29;20087;-93
2023/03/19 04:55:58;;;;;;;13.55;7.60;;;;;;;8.96;100.00;101075.81;4911111;29;20043;-93
2023/03/19 04:58:24;;;;;;;12.52;7.47;;;;;;;8.95;100.00;101079.25;4907658;29;21456;-94
2023/03/19 05:00:55;;;;;;;14.68;7.68;;;;;;;8.93;100.00;101075.72;4904485;29;20043;-94
2023/03/19 05:03:27;;;;;;;14.40;7.82;;;;;;;8.93;100.00;101079.19;4903996;29;20054;-93
2023/03/19 05:05:55;;;;;;;13.00;7.80;;;;;;;8.88;100.00;101086.84;4904032;29;20035;-93
2023/03/19 05:08:20;;;;;;;13.80;8.02;;;;;;;8.85;100.00;101091.06;4905592;29;20060;-93
2023/03/19 05:10:46;;;;;;;14.23;8.75;;;;;;;8.80;100.00;101083.09;4906623;29;20071;-94
2023/03/19 05:13:11;;;;;;;14.07;7.97;;;;;;;8.72;100.00;101091.44;4908929;29;20461;-94
2023/03/19 05:15:54;;;;;;;14.02;8.25;;;;;;;8.63;100.00;101092.91;4905358;29;20106;-94
2023/03/19 05:18:23;;;;;;;12.90;7.80;;;;;;;8.55;100.00;101099.53;4908210;29;20035;-94
2023/03/19 05:20:48;;;;;;;13.33;8.43;;;;;;;8.55;100.00;101101.25;4909081;29;20024;-93
2023/03/19 05:23:14;;;;;;;13.00;7.90;;;;;;;8.55;100.00;101102.13;4906059;29;20638;-93
2023/03/19 05:25:39;;;;;;;11.75;7.65;;;;;;;8.57;100.00;101099.59;4908469;29;20047;-92
2023/03/19 05:28:07;;;;;;;15.00;8.07;;;;;;;8.57;100.00;101094.41;4918647;29;20026;-93
2023/03/19 05:30:36;;;;;;;15.15;8.57;;;;;;;8.60;100.00;101103.16;4924156;29;20594;-91
2023/03/19 05:33:01;;;;;;;17.70;8.45;;;;;;;8.58;100.00;101106.56;4902651;29;20071;-93
2023/03/19 05:35:28;;;;;;;14.48;8.20;;;;;;;8.56;100.00;101100.41;4921617;29;20021;-93
2023/03/19 05:37:56;;;;;;;14.75;8.75;;;;;;;8.53;100.00;101104.69;4906344;29;20094;-93
2023/03/19 05:40:27;;;;;;;17.13;9.20;;;;;;;8.55;100.00;101117.72;4906233;29;20031;-94
2023/03/19 05:42:53;;;;;;;15.68;8.30;;;;;;;8.55;100.00;101111.66;4912440;29;20035;-93
2023/03/19 05:45:18;;;;;;;14.93;8.65;;;;;;;8.52;100.00;101110.69;4905554;29;20031;-94
2023/03/19 05:47:47;;;;;;;14.30;7.78;;;;;;;8.47;100.00;101114.84;4905966;29;20486;-95
2023/03/19 05:50:13;;;;;;;14.65;7.97;;;;;;;8.44;100.00;101114.72;4918272;29;20043;-94
2023/03/19 05:52:38;;;;;;;14.20;8.20;;;;;;;8.42;100.00;101120.66;4906562;29;20028;-94
2023/03/19 05:55:04;;;;;;;15.75;8.73;;;;;;;8.36;100.00;101126.53;4905931;29;20116;-95
2023/03/19 05:57:35;;;;;;;15.38;8.63;;;;;;;8.33;100.00;101123.81;4925940;29;20100;-93
2023/03/19 06:00:05;;;;;;;14.65;8.95;;;;;;;8.33;100.00;101123.81;4907931;29;20078;-93
2023/03/19 06:02:31;;;;;;;14.32;8.55;;;;;;;8.32;100.00;101122.03;4921694;29;20506;-94
2023/03/19 06:05:10;;;;;;;15.85;9.20;;;;;;;8.30;100.00;101115.91;4903126;29;20042;-94
2023/03/19 06:07:36;;;;;;;13.27;7.95;;;;;;;8.24;100.00;101126.94;4921093;29;20475;-94
2023/03/19 06:10:03;;;;;;;14.23;8.63;;;;;;;8.19;100.00;101133.66;4925412;29;20036;-94
2023/03/19 06:12:36;;;;;;;17.00;9.25;;;;;;;8.16;100.00;101133.56;4909743;29;20031;-93
2023/03/19 06:15:02;;;;;;;17.13;9.65;;;;;;;8.18;100.00;101145.78;4906490;29;20544;-93
2023/03/19 06:17:27;;;;;;;14.77;8.40;;;;;;;8.22;100.00;101140.69;4907007;29;20028;-94
2023/03/19 06:20:00;;;;;;;16.63;9.65;;;;;;;8.25;100.00;101148.59;4904162;29;20038;-93
2023/03/19 06:22:26;;;;;;;19.05;10.23;;;;;;;8.28;100.00;101149.56;4922558;29;20076;-93
2023/03/19 06:24:51;;;;;;;19.10;10.43;;;;;;;8.31;100.00;101152.31;4903349;29;20541;-93
2023/03/19 06:27:23;;;;;;;18.98;9.70;;;;;;;8.32;100.00;101154.06;4920439;29;20032;-93
2023/03/19 06:29:48;;;;;;;18.67;10.25;;;;;;;8.35;100.00;101155.91;4905748;29;20055;-94
2023/03/19 06:32:13;;;;;;;18.17;10.38;;;;;;;8.37;100.00;101159.41;4901767;29;20118;-93
2023/03/19 06:34:41;;;;;;;17.65;10.38;;;;;;;8.36;100.00;101158.56;4920749;29;20024;-93
2023/03/19 06:37:11;;;;;;;20.92;11.45;;;;;;;8.38;100.00;101171.59;4903551;29;20034;-94
2023/03/19 06:39:37;;;;;;;20.25;11.48;;;;;;;8.38;100.00;101170.72;4905444;29;20410;-93
2023/03/19 06:42:02;;;;;;;20.60;11.15;;;;;;;8.43;100.00;101172.66;4902817;29;20063;-94
2023/03/19 06:44:40;;;;;;;21.13;11.07;;;;;;;8.48;100.00;101168.53;4901037;29;20056;-93
2023/03/19 06:47:08;;;;;;;20.92;11.25;;;;;;;8.51;100.00;101176.44;4903871;29;20050;-93
2023/03/19 06:49:33;;;;;;;20.15;11.18;;;;;;;8.55;100.00;101168.78;4905027;29;20028;-94
2023/03/19 06:51:59;;;;;;;23.00;12.25;;;;;;;8.55;100.00;101173.97;4903563;29;20505;-94
2023/03/19 06:54:33;;;;;;;21.42;12.05;;;;;;;8.57;100.00;101178.38;4903320;29;20038;-94
2023/03/19 06:56:59;;;;;;;19.48;11.57;;;;;;;8.61;100.00;101172.47;4920988;29;20032;-93
2023/03/19 06:59:24;;;;;;;19.92;11.32;;;;;;;8.65;100.00;101186.47;4903015;29;20027;-92
2023/03/19 07:01:53;;;;;;;21.13;11.07;;;;;;;8.68;100.00;101182.25;4904061;29;20098;-93
2023/03/19 07:04:19;;;;;;;20.48;11.00;;;;;;;8.72;100.00;101180.69;4900953;29;20387;-95
2023/03/19 07:06:44;;;;;;;20.80;11.20;;;;;;;8.75;100.00;101187.69;4902907;29;20064;-94
2023/03/19 07:09:10;;;;;;;21.38;12.18;;;;;;;8.79;100.00;101189.56;4902149;29;20024;-94
2023/03/19 07:11:35;;;;;;;20.13;11.10;;;;;;;8.84;100.00;101188.91;4904423;29;20028;-94
2023/03/19 07:14:01;;;;;;;23.70;12.18;;;;;;;8.92;100.00;101194.41;4906190;29;20024;-94
2023/03/19 07:16:29;;;;;;;20.45;11.57;;;;;;;8.98;100.00;101196.31;4921248;29;20063;-94
2023/03/19 07:18:55;;;;;;;23.00;11.63;;;;;;;9.03;100.00;101195.63;4903618;29;20039;-94
2023/03/19 07:21:21;;;;;;;22.10;11.55;;;;;;;9.12;100.00;101208.06;4906760;29;20115;-93
2023/03/19 07:23:46;;;;;;;23.27;11.98;;;;;;;9.17;100.00;101203.94;4923624;29;20111;-94
2023/03/19 07:26:12;;;;;;;25.02;11.68;;;;;;;9.25;100.00;101209.41;4905880;29;20383;-93
2023/03/19 07:28:43;;;;;;;20.50;12.02;;;;;;;9.32;100.00;101215.72;4920450;29;20050;-94
2023/03/19 07:31:09;;;;;;;21.38;11.50;;;;;;;9.39;100.00;101210.75;4903705;29;20043;-93
2023/03/19 07:33:35;;;;;;;22.95;11.25;;;;;;;9.47;100.00;101221.44;4902646;29;20032;-95
2023/03/19 07:36:00;;;;;;;25.13;12.05;;;;;;;9.53;100.00;101221.66;4903766;29;20490;-94
2023/03/19 07:38:28;;;;;;;22.10;11.27;;;;;;;9.63;100.00;101228.06;4903265;29;20059;-94
2023/03/19 07:40:54;;;;;;;22.63;12.13;;;;;;;9.71;100.00;101215.28;4906165;29;20027;-94
2023/03/19 07:43:19;;;;;;;23.30;11.07;;;;;;;9.77;100.00;101218.09;4904505;29;20074;-94
2023/03/19 07:45:45;;;;;;;21.75;11.40;;;;;;;9.87;100.00;101222.75;4922086;29;20059;-94
2023/03/19 07:48:11;;;;;;;22.55;11.13;;;;;;;9.97;100.00;101230.88;4902632;29;20859;-94
2023/03/19 07:50:40;;;;;;;22.17;10.13;;;;;;;10.04;100.00;101217.22;4906348;29;20034;-94
2023/03/19 07:53:11;;;;;;;21.67;10.45;;;;;;;10.13;100.00;101227.91;4907418;29;20035;-94
2023/03/19 07:55:39;;;;;;;22.02;10.73;;;;;;;10.26;100.00;101224.84;4905926;29;20031;-94
2023/03/19 07:58:04;;;;;;;22.55;10.93;;;;;;;10.39;100.00;101231.34;4919925;29;20036;-94
2023/03/19 08:00:30;;;;;;;22.23;10.10;;;;;;;10.48;100.00;101227.28;4902786;29;20402;-94
2023/03/19 08:02:57;;;;;;;21.42;9.93;;;;;;;10.60;100.00;101233.75;4904910;29;20481;-95
2023/03/19 08:05:23;;;;;;;21.92;10.45;;;;;;;10.71;100.00;101234.03;4909072;29;20069;-95
2023/03/19 08:07:56;;;;;;;24.13;10.18;;;;;;;10.79;100.00;101240.38;4904275;29;20550;-94
2023/03/19 08:10:25;;;;;;;23.17;8.93;;;;;;;10.79;98.46;101236.88;4905500;29;20055;-94
2023/03/19 08:12:51;;;;;;;20.60;8.90;;;;;;;10.76;98.63;101239.38;4903010;29;20023;-93
2023/03/19 08:15:16;;;;;;;16.77;7.45;;;;;;;10.73;97.37;101245.41;4904944;29;20482;-94
2023/03/19 08:17:42;;;;;;;20.60;6.85;;;;;;;10.69;95.93;101245.25;4907406;29;20035;-94
2023/03/19 08:20:17;;;;;;;19.48;7.30;;;;;;;10.66;95.41;101251.28;4908085;29;20490;-94
2023/03/19 08:22:42;;;;;;;19.70;7.70;;;;;;;10.64;96.72;101252.94;4896849;29;20080;-94
2023/03/19 08:25:12;;;;;;;21.63;8.55;;;;;;;10.64;95.84;101252.06;4902605;29;20024;-95
2023/03/19 08:27:37;;;;;;;23.33;8.23;;;;;;;10.59;96.42;101252.81;4894499;29;20019;-96
2023/03/19 08:30:07;;;;;;;21.38;9.00;;;;;;;10.59;97.48;101263.22;4901926;29;20119;-94
2023/03/19 08:32:33;;;;;;;22.60;8.20;;;;;;;10.59;96.41;101255.41;4901253;29;20052;-95
2023/03/19 08:34:59;;;;;;;21.30;8.75;;;;;;;10.57;96.21;101251.88;4899945;29;20070;-94
2023/03/19 08:37:24;;;;;;;18.95;8.55;;;;;;;10.59;95.93;101258.03;4904060;29;20023;-96
2023/03/19 08:40:00;;;;;;;23.10;8.85;;;;;;;10.69;96.98;101260.88;4911577;29;20032;-95
2023/03/19 08:42:26;;;;;;;23.90;8.82;;;;;;;10.87;96.57;101264.03;4903838;29;20110;-94
2023/03/19 08:44:54;;;;;;;23.60;8.30;;;;;;;11.08;96.04;101261.19;4899687;29;20143;-96
2023/03/19 08:47:23;;;;;;;22.67;8.10;;;;;;;11.21;93.66;101271.94;4903943;29;20035;-96
2023/03/19 08:49:51;;;;;;;19.17;7.63;;;;;;;11.31;93.22;101272.25;4905454;29;20032;-94
2023/03/19 08:52:18;;;;;;;20.50;7.95;;;;;;;11.44;94.07;101269.97;4900533;29;20059;-95
2023/03/19 08:55:00;;;;;;;20.88;8.15;;;;;;;11.50;92.86;101275.38;4898913;29;20083;-95
2023/03/19 08:57:25;;;;;;;24.40;8.82;;;;;;;11.58;92.65;101276.44;4899917;29;20111;-95
2023/03/19 08:59:57;;;;;;;21.20;8.73;;;;;;;11.60;91.53;101282.59;4898635;29;20199;-95
2023/03/19 09:02:26;;;;;;;20.42;7.95;;;;;;;11.53;91.80;101285.88;4899471;29;20118;-95
2023/03/19 09:04:51;;;;;;;21.08;9.20;;;;;;;11.42;92.61;101289.91;4900487;29;20032;-95
2023/03/19 09:07:25;;;;;;;20.92;9.40;;;;;;;11.34;92.30;101281.00;4905577;29;20716;-95
2023/03/19 09:09:53;;;;;;;26.02;9.43;;;;;;;11.35;93.50;101285.38;4902821;29;20048;-94
2023/03/19 09:12:21;;;;;;;19.40;9.07;;;;;;;11.36;93.47;101285.41;4910295;29;20057;-96
2023/03/19 09:14:52;;;;;;;20.52;8.48;;;;;;;11.37;92.24;101289.81;4905764;29;20039;-96
2023/03/19 09:17:20;;;;;;;25.25;8.88;;;;;;;11.39;91.83;101290.72;4908726;29;20028;-96
2023/03/19 09:19:45;;;;;;;17.67;8.10;;;;;;;11.44;90.71;101303.88;4904216;29;20029;-96
2023/03/19 09:22:11;;;;;;;19.15;7.85;;;;;;;11.43;89.39;101297.78;4908844;29;20098;-96
2023/03/19 09:24:41;;;;;;;17.33;8.43;;;;;;;11.38;89.66;101306.31;4904522;29;20111;-95
2023/03/19 09:27:09;;;;;;;19.83;8.05;;;;;;;11.34;90.18;101302.78;4911158;29;20171;-95
2023/03/19 09:29:35;;;;;;;23.70;9.10;;;;;;;11.40;90.53;101302.06;4903736;29;20031;-95
2023/03/19 09:32:00;;;;;;;20.50;8.57;;;;;;;11.62;92.15;101306.13;4924949;29;20363;-95
2023/03/19 09:34:26;;;;;;;20.52;8.60;;;;;;;11.89;90.25;101308.56;4907765;29;20053;-96
2023/03/19 09:36:57;;;;;;;22.30;9.07;;;;;;;12.15;89.31;101310.97;4905683;29;20055;-95
2023/03/19 09:39:29;;;;;;;17.23;8.40;;;;;;;12.35;87.56;101317.59;4907975;29;20027;-96
2023/03/19 09:42:18;;;;;;;19.42;8.63;;;;;;;12.60;88.17;101323.38;4909280;29;20028;-94
2023/03/19 09:44:47;;;;;;;21.85;8.60;;;;;;;12.83;85.14;101326.53;4911301;29;20024;-96
2023/03/19 09:50:19;;;;;;;24.42;10.65;;;;;;;13.03;84.69;101324.34;4901178;29;20308;-67
2023/03/19 09:52:59;;;;;;;25.35;11.68;;;;;;;13.15;85.00;101328.03;4994899;23;20295;-67
2023/03/19 09:55:41;;;;;;;19.98;11.30;;;;;;;13.27;85.41;101328.31;4895069;29;20032;-67
2023/03/19 09:58:19;;;;;;;24.60;12.05;;;;;;;13.36;85.34;101323.28;4912405;29;20159;-67
2023/03/19 10:00:52;;;;;;;26.90;12.70;;;;;;;13.58;86.56;101315.84;4911583;29;20040;-67
2023/03/19 10:03:45;;;;;;;24.90;11.13;;;;;;;13.77;83.59;101327.53;4912616;29;20052;-67
2023/03/19 10:06:14;;;;;;;19.40;9.35;;;;;;;13.95;82.16;101332.22;4912144;29;20530;-71
2023/03/19 10:09:01;;;;;;;27.67;12.15;;;;;;;14.19;85.41;101326.53;4911980;29;20060;-72
2023/03/19 10:11:56;;;;;;;28.92;13.90;;;;;;;14.40;83.44;101328.59;4905418;29;20043;-72
2023/03/19 10:14:52;;;;;;;22.60;8.32;;;;;;;14.39;79.68;101332.06;4911969;29;20062;-72
2023/03/19 10:17:27;;;;;;;20.92;8.27;;;;;;;14.29;79.60;101334.53;4905629;29;20051;-72
2023/03/19 10:20:01;;;;;;;18.42;8.40;;;;;;;14.14;78.67;101330.81;4911052;29;20110;-72
2023/03/19 10:22:34;;;;;;;15.27;6.57;;;;;;;14.21;77.91;101334.41;4912164;29;20059;-72
2023/03/19 10:25:01;;;;;;;17.85;6.75;;;;;;;14.21;79.52;101329.19;4911952;29;20048;-72
2023/03/19 10:27:28;;;;;;;16.80;7.50;;;;;;;14.36;79.53;101329.41;4908998;29;20511;-72
2023/03/19 10:29:54;;;;;;;16.15;7.38;;;;;;;14.49;79.11;101330.47;4912459;29;20028;-72
2023/03/19 10:32:34;;;;;;;17.25;6.38;;;;;;;14.69;79.61;101336.06;4911892;29;20024;-72
2023/03/19 10:35:06;;;;;;;18.10;6.82;;;;;;;14.74;76.50;101339.66;4911480;29;20476;-71
2023/03/19 10:37:33;;;;;;;22.08;8.55;;;;;;;14.80;80.14;101328.31;4911107;29;20070;-72
2023/03/19 10:40:00;;;;;;;21.02;8.07;;;;;;;14.84;78.96;101332.75;4911513;29;20032;-72
2023/03/19 10:42:37;;;;;;;14.48;6.70;;;;;;;14.74;76.14;101344.00;4910801;29;20128;-72
2023/03/19 10:45:28;;;;;;;15.02;6.47;;;;;;;14.42;77.47;101342.63;4911545;29;20036;-71
2023/03/19 10:47:58;;;;;;;15.88;7.20;;;;;;;14.21;77.73;101342.28;4910660;29;20024;-72
2023/03/19 10:50:31;;;;;;;15.45;7.07;;;;;;;14.05;79.41;101342.00;4911411;29;20036;-71
2023/03/19 10:53:12;;;;;;;18.77;7.55;;;;;;;13.95;78.76;101349.66;4893765;29;20625;-71
2023/03/19 10:55:37;;;;;;;22.25;7.35;;;;;;;13.82;79.55;101346.84;4911785;29;20051;-71
2023/03/19 10:58:16;;;;;;;19.63;7.45;;;;;;;13.72;79.55;101353.63;4909953;29;20028;-67
2023/03/19 11:00:45;;;;;;;19.83;8.03;;;;;;;13.62;80.23;101346.47;4893066;29;20231;-67
2023/03/19 11:03:32;;;;;;;16.58;6.80;;;;;;;13.51;80.45;101355.84;4911163;29;20929;-67
2023/03/19 11:06:17;;;;;;;17.85;5.30;;;;;;;13.45;80.67;101351.38;4909846;29;20036;-67
2023/03/19 11:08:51;;;;;;;14.98;5.78;;;;;;;13.48;81.20;101350.56;4910580;29;20035;-67
2023/03/19 11:11:33;;;;;;;14.93;5.57;;;;;;;13.61;80.54;101343.81;4893712;29;20086;-67
2023/03/19 11:14:06;;;;;;;14.35;5.10;;;;;;;13.77;80.19;101351.09;4911050;29;20035;-67
2023/03/19 11:16:32;;;;;;;17.05;5.70;;;;;;;13.80;78.39;101358.13;4910313;29;20032;-67
2023/03/19 11:18:57;;;;;;;13.68;5.75;;;;;;;13.73;77.39;101354.53;4910940;29;20385;-67
2023/03/19 11:21:31;;;;;;;15.68;5.47;;;;;;;13.78;79.60;101352.88;4911356;29;20032;-67
2023/03/19 11:24:02;;;;;;;17.25;7.78;;;;;;;13.80;79.02;101355.53;4910887;29;20491;-67
2023/03/19 11:26:27;;;;;;;16.63;7.57;;;;;;;13.76;79.12;101351.97;4892850;29;20036;-67
2023/03/19 11:28:56;;;;;;;17.02;8.40;;;;;;;13.74;80.15;101364.13;4910539;29;20500;-67
2023/03/19 11:31:45;;;;;;;21.90;10.10;;;;;;;13.75;80.68;101358.06;4910865;29;20511;-67
2023/03/19 11:34:47;;;;;;;19.33;9.93;;;;;;;13.78;81.14;101367.72;4894495;29;20064;-67